sensor_id;sensor_type;location;lat;lon;timestamp;pressure;altitude;pressure_sealevel;temperature;humidity
54172;BME280;40076;52.354;4.970;2024-01-27T00:01:43;103420.25;;;5.93;100.00
54172;BME280;40076;52.354;4.970;2024-01-27T00:04:09;103427.69;;;5.91;100.00
54172;BME280;40076;52.354;4.970;2024-01-27T00:06:34;103428.94;;;5.88;100.00
54172;BME280;40076;52.354;4.970;2024-01-27T00:09:00;103435.56;;;5.86;100.00
54172;BME280;40076;52.354;4.970;2024-01-27T00:11:25;103443.00;;;5.83;100.00
54172;BME280;40076;52.354;4.970;2024-01-27T00:13:51;103439.72;;;5.81;100.00
54172;BME280;40076;52.354;4.970;2024-01-27T00:16:17;103434.56;;;5.80;100.00
54172;BME280;40076;52.354;4.970;2024-01-27T00:18:42;103436.69;;;5.78;100.00
54172;BME280;40076;52.354;4.970;2024-01-27T00:21:07;103437.94;;;5.75;100.00
54172;BME280;40076;52.354;4.970;2024-01-27T00:23:33;103438.16;;;5.74;100.00
54172;BME280;40076;52.354;4.970;2024-01-27T00:25:59;103435.69;;;5.72;100.00
54172;BME280;40076;52.354;4.970;2024-01-27T00:28:25;103430.31;;;5.72;100.00
54172;BME280;40076;52.354;4.970;2024-01-27T00:30:50;103426.84;;;5.72;100.00
54172;BME280;40076;52.354;4.970;2024-01-27T00:33:15;103418.81;;;5.72;100.00
54172;BME280;40076;52.354;4.970;2024-01-27T00:35:41;103427.28;;;5.69;100.00
54172;BME280;40076;52.354;4.970;2024-01-27T00:38:06;103432.03;;;5.67;100.00
54172;BME280;40076;52.354;4.970;2024-01-27T00:40:32;103436.81;;;5.65;100.00
54172;BME280;40076;52.354;4.970;2024-01-27T00:42:57;103439.94;;;5.62;100.00
54172;BME280;40076;52.354;4.970;2024-01-27T00:45:23;103445.53;;;5.60;100.00
54172;BME280;40076;52.354;4.970;2024-01-27T00:47:50;103445.75;;;5.59;100.00
54172;BME280;40076;52.354;4.970;2024-01-27T00:50:16;103437.13;;;5.57;100.00
54172;BME280;40076;52.354;4.970;2024-01-27T00:52:41;103436.50;;;5.55;100.00
54172;BME280;40076;52.354;4.970;2024-01-27T00:55:07;103435.91;;;5.53;100.00
54172;BME280;40076;52.354;4.970;2024-01-27T00:57:32;103444.16;;;5.51;100.00
54172;BME280;40076;52.354;4.970;2024-01-27T00:59:58;103440.09;;;5.49;100.00
54172;BME280;40076;52.354;4.970;2024-01-27T01:02:23;103447.31;;;5.48;100.00
54172;BME280;40076;52.354;4.970;2024-01-27T01:04:49;103448.34;;;5.47;100.00
54172;BME280;40076;52.354;4.970;2024-01-27T01:07:14;103450.41;;;5.45;100.00
54172;BME280;40076;52.354;4.970;2024-01-27T01:09:39;103451.44;;;5.44;100.00
54172;BME280;40076;52.354;4.970;2024-01-27T01:12:05;103444.69;;;5.41;100.00
54172;BME280;40076;52.354;4.970;2024-01-27T01:14:30;103448.63;;;5.39;100.00
54172;BME280;40076;52.354;4.970;2024-01-27T01:16:56;103456.88;;;5.37;100.00
54172;BME280;40076;52.354;4.970;2024-01-27T01:19:21;103445.34;;;5.37;100.00
54172;BME280;40076;52.354;4.970;2024-01-27T01:21:46;103446.16;;;5.37;100.00
54172;BME280;40076;52.354;4.970;2024-01-27T01:24:12;103455.22;;;5.36;100.00
54172;BME280;40076;52.354;4.970;2024-01-27T01:26:37;103456.06;;;5.37;100.00
54172;BME280;40076;52.354;4.970;2024-01-27T01:29:02;103443.47;;;5.37;100.00
54172;BME280;40076;52.354;4.970;2024-01-27T01:31:28;103450.69;;;5.37;100.00
54172;BME280;40076;52.354;4.970;2024-01-27T01:33:53;103447.41;;;5.35;100.00
54172;BME280;40076;52.354;4.970;2024-01-27T01:36:18;103446.00;;;5.32;100.00
54172;BME280;40076;52.354;4.970;2024-01-27T01:38:44;103450.53;;;5.32;100.00
54172;BME280;40076;52.354;4.970;2024-01-27T01:41:10;103447.25;;;5.30;100.00
54172;BME280;40076;52.354;4.970;2024-01-27T01:43:35;103461.69;;;5.29;100.00
54172;BME280;40076;52.354;4.970;2024-01-27T01:46:00;103454.94;;;5.26;100.00
54172;BME280;40076;52.354;4.970;2024-01-27T01:48:26;103464.22;;;5.24;100.00
54172;BME280;40076;52.354;4.970;2024-01-27T01:50:51;103463.81;;;5.20;100.00
54172;BME280;40076;52.354;4.970;2024-01-27T01:53:17;103460.78;;;5.17;100.00
54172;BME280;40076;52.354;4.970;2024-01-27T01:55:43;103457.47;;;5.15;100.00
54172;BME280;40076;52.354;4.970;2024-01-27T01:58:08;103454.19;;;5.13;100.00
54172;BME280;40076;52.354;4.970;2024-01-27T02:00:34;103454.19;;;5.13;100.00
54172;BME280;40076;52.354;4.970;2024-01-27T02:03:00;103455.00;;;5.13;100.00
54172;BME280;40076;52.354;4.970;2024-01-27T02:05:26;103455.84;;;5.14;100.00
54172;BME280;40076;52.354;4.970;2024-01-27T02:07:51;103457.91;;;5.12;100.00
54172;BME280;40076;52.354;4.970;2024-01-27T02:10:17;103461.25;;;5.07;100.00
54172;BME280;40076;52.354;4.970;2024-01-27T02:12:43;103461.91;;;5.02;100.00
54172;BME280;40076;52.354;4.970;2024-01-27T02:15:13;103460.47;;;5.00;100.00
54172;BME280;40076;52.354;4.970;2024-01-27T02:17:39;103460.91;;;4.97;100.00
54172;BME280;40076;52.354;4.970;2024-01-27T02:20:08;103458.47;;;4.95;100.00
54172;BME280;40076;52.354;4.970;2024-01-27T02:22:34;103459.25;;;4.96;100.00
54172;BME280;40076;52.354;4.970;2024-01-27T02:25:00;103455.78;;;4.95;100.00
54172;BME280;40076;52.354;4.970;2024-01-27T02:27:25;103459.50;;;4.94;100.00
54172;BME280;40076;52.354;4.970;2024-01-27T02:29:51;103463.22;;;4.93;100.00
54172;BME280;40076;52.354;4.970;2024-01-27T02:32:16;103477.25;;;4.89;100.00
54172;BME280;40076;52.354;4.970;2024-01-27T02:34:41;103470.91;;;4.83;100.00
54172;BME280;40076;52.354;4.970;2024-01-27T02:37:07;103465.16;;;4.80;100.00
54172;BME280;40076;52.354;4.970;2024-01-27T02:39:32;103462.28;;;4.75;100.00
54172;BME280;40076;52.354;4.970;2024-01-27T02:41:57;103455.28;;;4.74;100.00
54172;BME280;40076;52.354;4.970;2024-01-27T02:44:23;103470.78;;;4.72;100.00
54172;BME280;40076;52.354;4.970;2024-01-27T02:46:48;103453.06;;;4.71;100.00
54172;BME280;40076;52.354;4.970;2024-01-27T02:49:14;103458.41;;;4.71;100.00
54172;BME280;40076;52.354;4.970;2024-01-27T02:51:39;103458.84;;;4.68;100.00
54172;BME280;40076;52.354;4.970;2024-01-27T02:54:07;103466.50;;;4.64;100.00
54172;BME280;40076;52.354;4.970;2024-01-27T02:56:32;103472.06;;;4.62;100.00
54172;BME280;40076;52.354;4.970;2024-01-27T02:58:58;103453.09;;;4.64;100.00
54172;BME280;40076;52.354;4.970;2024-01-27T03:01:23;103454.97;;;4.63;100.00
54172;BME280;40076;52.354;4.970;2024-01-27T03:03:49;103447.75;;;4.64;100.00
54172;BME280;40076;52.354;4.970;2024-01-27T03:06:15;103442.59;;;4.62;100.00
54172;BME280;40076;52.354;4.970;2024-01-27T03:08:40;103451.06;;;4.59;100.00
54172;BME280;40076;52.354;4.970;2024-01-27T03:11:05;103452.09;;;4.58;100.00
54172;BME280;40076;52.354;4.970;2024-01-27T03:13:31;103454.75;;;4.58;100.00
54172;BME280;40076;52.354;4.970;2024-01-27T03:15:56;103450.22;;;4.59;100.00
54172;BME280;40076;52.354;4.970;2024-01-27T03:18:22;103448.81;;;4.56;100.00
54172;BME280;40076;52.354;4.970;2024-01-27T03:20:47;103463.03;;;4.57;100.00
54172;BME280;40076;52.354;4.970;2024-01-27T03:23:13;103450.69;;;4.56;100.00
54172;BME280;40076;52.354;4.970;2024-01-27T03:25:38;103457.69;;;4.57;100.00
54172;BME280;40076;52.354;4.970;2024-01-27T03:28:04;103460.94;;;4.59;100.00
54172;BME280;40076;52.354;4.970;2024-01-27T03:30:29;103461.19;;;4.57;100.00
54172;BME280;40076;52.354;4.970;2024-01-27T03:32:54;103467.56;;;4.56;100.00
54172;BME280;40076;52.354;4.970;2024-01-27T03:35:20;103469.84;;;4.53;100.00
54172;BME280;40076;52.354;4.970;2024-01-27T03:37:45;103476.22;;;4.52;100.00
54172;BME280;40076;52.354;4.970;2024-01-27T03:40:11;103476.44;;;4.50;100.00
54172;BME280;40076;52.354;4.970;2024-01-27T03:42:36;103487.38;;;4.49;100.00
54172;BME280;40076;52.354;4.970;2024-01-27T03:45:02;103482.84;;;4.49;100.00
54172;BME280;40076;52.354;4.970;2024-01-27T03:47:27;103479.94;;;4.51;100.00
54172;BME280;40076;52.354;4.970;2024-01-27T03:49:53;103477.66;;;4.54;100.00
54172;BME280;40076;52.354;4.970;2024-01-27T03:52:18;103480.13;;;4.56;100.00
54172;BME280;40076;52.354;4.970;2024-01-27T03:54:43;103482.38;;;4.59;100.00
54172;BME280;40076;52.354;4.970;2024-01-27T03:57:08;103487.50;;;4.60;100.00
54172;BME280;40076;52.354;4.970;2024-01-27T03:59:40;103483.19;;;4.59;100.00
54172;BME280;40076;52.354;4.970;2024-01-27T04:02:06;103479.09;;;4.57;100.00
54172;BME280;40076;52.354;4.970;2024-01-27T04:04:31;103473.50;;;4.58;100.00
54172;BME280;40076;52.354;4.970;2024-01-27T04:06:56;103461.56;;;4.61;100.00
54172;BME280;40076;52.354;4.970;2024-01-27T04:09:22;103474.72;;;4.62;100.00
54172;BME280;40076;52.354;4.970;2024-01-27T04:11:48;103480.91;;;4.63;100.00
54172;BME280;40076;52.354;4.970;2024-01-27T04:14:13;103484.63;;;4.62;100.00
54172;BME280;40076;52.354;4.970;2024-01-27T04:16:38;103478.66;;;4.60;100.00
54172;BME280;40076;52.354;4.970;2024-01-27T04:19:08;103481.78;;;4.57;100.00
54172;BME280;40076;52.354;4.970;2024-01-27T04:21:33;103478.28;;;4.56;100.00
54172;BME280;40076;52.354;4.970;2024-01-27T04:23:58;103475.34;;;4.58;100.00
54172;BME280;40076;52.354;4.970;2024-01-27T04:26:24;103480.50;;;4.59;100.00
54172;BME280;40076;52.354;4.970;2024-01-27T04:28:49;103481.53;;;4.58;100.00
54172;BME280;40076;52.354;4.970;2024-01-27T04:31:14;103485.28;;;4.57;100.00
54172;BME280;40076;52.354;4.970;2024-01-27T04:33:40;103494.94;;;4.58;100.00
54172;BME280;40076;52.354;4.970;2024-01-27T04:36:05;103491.66;;;4.56;100.00
54172;BME280;40076;52.354;4.970;2024-01-27T04:38:32;103491.06;;;4.54;100.00
54172;BME280;40076;52.354;4.970;2024-01-27T04:40:57;103490.44;;;4.52;100.00
54172;BME280;40076;52.354;4.970;2024-01-27T04:43:23;103499.50;;;4.51;100.00
54172;BME280;40076;52.354;4.970;2024-01-27T04:45:48;103503.22;;;4.50;100.00
54172;BME280;40076;52.354;4.970;2024-01-27T04:48:14;103494.13;;;4.51;100.00
54172;BME280;40076;52.354;4.970;2024-01-27T04:50:40;103498.91;;;4.49;100.00
54172;BME280;40076;52.354;4.970;2024-01-27T04:53:05;103490.25;;;4.47;100.00
54172;BME280;40076;52.354;4.970;2024-01-27T04:55:30;103500.34;;;4.45;100.00
54172;BME280;40076;52.354;4.970;2024-01-27T04:57:56;103503.47;;;4.42;100.00
54172;BME280;40076;52.354;4.970;2024-01-27T05:00:23;103496.47;;;4.41;100.00
54172;BME280;40076;52.354;4.970;2024-01-27T05:02:50;103494.81;;;4.40;100.00
54172;BME280;40076;52.354;4.970;2024-01-27T05:05:15;103487.81;;;4.39;100.00
54172;BME280;40076;52.354;4.970;2024-01-27T05:07:41;103487.22;;;4.37;100.00
54172;BME280;40076;52.354;4.970;2024-01-27T05:10:09;103490.09;;;4.36;100.00
54172;BME280;40076;52.354;4.970;2024-01-27T05:12:35;103494.84;;;4.34;100.00
54172;BME280;40076;52.354;4.970;2024-01-27T05:15:00;103490.75;;;4.31;100.00
54172;BME280;40076;52.354;4.970;2024-01-27T05:17:26;103487.66;;;4.27;100.00
54172;BME280;40076;52.354;4.970;2024-01-27T05:19:51;103498.59;;;4.26;100.00
54172;BME280;40076;52.354;4.970;2024-01-27T05:22:16;103483.75;;;4.23;100.00
54172;BME280;40076;52.354;4.970;2024-01-27T05:24:42;103492.41;;;4.25;100.00
54172;BME280;40076;52.354;4.970;2024-01-27T05:27:14;103491.59;;;4.25;100.00
54172;BME280;40076;52.354;4.970;2024-01-27T05:29:40;103494.47;;;4.23;100.00
54172;BME280;40076;52.354;4.970;2024-01-27T05:32:05;103503.53;;;4.22;100.00
54172;BME280;40076;52.354;4.970;2024-01-27T05:34:31;103502.72;;;4.22;100.00
54172;BME280;40076;52.354;4.970;2024-01-27T05:36:56;103496.72;;;4.20;100.00
54172;BME280;40076;52.354;4.970;2024-01-27T05:39:21;103494.06;;;4.20;100.00
54172;BME280;40076;52.354;4.970;2024-01-27T05:41:49;103486.03;;;4.20;100.00
54172;BME280;40076;52.354;4.970;2024-01-27T05:44:14;103480.91;;;4.18;100.00
54172;BME280;40076;52.354;4.970;2024-01-27T05:46:40;103482.75;;;4.18;100.00
54172;BME280;40076;52.354;4.970;2024-01-27T05:49:05;103480.50;;;4.15;100.00
54172;BME280;40076;52.354;4.970;2024-01-27T05:51:30;103470.81;;;4.14;100.00
54172;BME280;40076;52.354;4.970;2024-01-27T05:53:58;103475.59;;;4.12;100.00
54172;BME280;40076;52.354;4.970;2024-01-27T05:56:24;103473.94;;;4.11;100.00
54172;BME280;40076;52.354;4.970;2024-01-27T05:58:49;103483.41;;;4.07;100.00
54172;BME280;40076;52.354;4.970;2024-01-27T06:01:14;103490.22;;;4.03;100.00
54172;BME280;40076;52.354;4.970;2024-01-27T06:03:43;103495.78;;;4.01;100.00
54172;BME280;40076;52.354;4.970;2024-01-27T06:06:09;103499.47;;;4.00;100.00
54172;BME280;40076;52.354;4.970;2024-01-27T06:08:35;103506.88;;;3.98;100.00
54172;BME280;40076;52.354;4.970;2024-01-27T06:11:01;103498.28;;;3.96;100.00
54172;BME280;40076;52.354;4.970;2024-01-27T06:13:26;103498.47;;;3.95;100.00
54172;BME280;40076;52.354;4.970;2024-01-27T06:15:51;103494.97;;;3.94;100.00
54172;BME280;40076;52.354;4.970;2024-01-27T06:18:17;103500.31;;;3.94;100.00
54172;BME280;40076;52.354;4.970;2024-01-27T06:20:42;103510.00;;;3.95;100.00
54172;BME280;40076;52.354;4.970;2024-01-27T06:23:10;103503.19;;;3.93;100.00
54172;BME280;40076;52.354;4.970;2024-01-27T06:25:36;103498.06;;;3.91;100.00
54172;BME280;40076;52.354;4.970;2024-01-27T06:28:01;103485.69;;;3.90;100.00
54172;BME280;40076;52.354;4.970;2024-01-27T06:30:26;103483.47;;;3.87;100.00
54172;BME280;40076;52.354;4.970;2024-01-27T06:32:54;103498.69;;;3.86;100.00
54172;BME280;40076;52.354;4.970;2024-01-27T06:35:19;103499.09;;;3.83;100.00
54172;BME280;40076;52.354;4.970;2024-01-27T06:37:45;103485.09;;;3.81;100.00
54172;BME280;40076;52.354;4.970;2024-01-27T06:40:13;103488.41;;;3.83;100.00
54172;BME280;40076;52.354;4.970;2024-01-27T06:42:39;103483.25;;;3.82;100.00
54172;BME280;40076;52.354;4.970;2024-01-27T06:45:05;103485.94;;;3.82;100.00
54172;BME280;40076;52.354;4.970;2024-01-27T06:47:30;103497.69;;;3.81;100.00
54172;BME280;40076;52.354;4.970;2024-01-27T06:49:56;103495.22;;;3.79;100.00
54172;BME280;40076;52.354;4.970;2024-01-27T06:52:21;103498.09;;;3.78;100.00
54172;BME280;40076;52.354;4.970;2024-01-27T06:54:47;103489.44;;;3.76;100.00
54172;BME280;40076;52.354;4.970;2024-01-27T06:57:19;103494.78;;;3.76;100.00
54172;BME280;40076;52.354;4.970;2024-01-27T06:59:48;103494.16;;;3.74;100.00
54172;BME280;40076;52.354;4.970;2024-01-27T07:02:24;103497.66;;;3.74;100.00
54172;BME280;40076;52.354;4.970;2024-01-27T07:04:51;103495.22;;;3.73;100.00
54172;BME280;40076;52.354;4.970;2024-01-27T07:07:18;103500.78;;;3.71;100.00
54172;BME280;40076;52.354;4.970;2024-01-27T07:09:43;103492.13;;;3.69;100.00
54172;BME280;40076;52.354;4.970;2024-01-27T07:12:09;103491.31;;;3.69;100.00
54172;BME280;40076;52.354;4.970;2024-01-27T07:14:37;103496.84;;;3.67;100.00
54172;BME280;40076;52.354;4.970;2024-01-27T07:17:03;103492.13;;;3.69;100.00
54172;BME280;40076;52.354;4.970;2024-01-27T07:19:31;103495.81;;;3.68;100.00
54172;BME280;40076;52.354;4.970;2024-01-27T07:21:57;103500.16;;;3.69;100.00
54172;BME280;40076;52.354;4.970;2024-01-27T07:24:23;103502.81;;;3.69;100.00
54172;BME280;40076;52.354;4.970;2024-01-27T07:26:48;103502.41;;;3.72;100.00
54172;BME280;40076;52.354;4.970;2024-01-27T07:29:14;103504.47;;;3.70;100.00
54172;BME280;40076;52.354;4.970;2024-01-27T07:31:39;103515.16;;;3.70;100.00
54172;BME280;40076;52.354;4.970;2024-01-27T07:34:07;103510.84;;;3.69;100.00
54172;BME280;40076;52.354;4.970;2024-01-27T07:36:33;103505.69;;;3.68;100.00
54172;BME280;40076;52.354;4.970;2024-01-27T07:39:01;103510.03;;;3.69;100.00
54172;BME280;40076;52.354;4.970;2024-01-27T07:41:29;103504.28;;;3.65;100.00
54172;BME280;40076;52.354;4.970;2024-01-27T07:43:54;103504.28;;;3.65;100.00
54172;BME280;40076;52.354;4.970;2024-01-27T07:46:20;103498.94;;;3.65;100.00
54172;BME280;40076;52.354;4.970;2024-01-27T07:48:48;103502.44;;;3.66;100.00
54172;BME280;40076;52.354;4.970;2024-01-27T07:51:13;103509.41;;;3.67;100.00
54172;BME280;40076;52.354;4.970;2024-01-27T07:53:38;103519.28;;;3.66;100.00
54172;BME280;40076;52.354;4.970;2024-01-27T07:56:04;103525.44;;;3.67;100.00
54172;BME280;40076;52.354;4.970;2024-01-27T07:58:30;103525.44;;;3.67;100.00
54172;BME280;40076;52.354;4.970;2024-01-27T08:00:55;103526.25;;;3.67;100.00
54172;BME280;40076;52.354;4.970;2024-01-27T08:03:21;103527.09;;;3.68;100.00
54172;BME280;40076;52.354;4.970;2024-01-27T08:05:46;103527.91;;;3.68;100.00
54172;BME280;40076;52.354;4.970;2024-01-27T08:08:11;103532.03;;;3.71;100.00
54172;BME280;40076;52.354;4.970;2024-01-27T08:10:37;103527.50;;;3.71;100.00
54172;BME280;40076;52.354;4.970;2024-01-27T08:13:02;103524.84;;;3.71;100.00
54172;BME280;40076;52.354;4.970;2024-01-27T08:15:27;103521.97;;;3.73;100.00
54172;BME280;40076;52.354;4.970;2024-01-27T08:17:53;103521.72;;;3.74;100.00
54172;BME280;40076;52.354;4.970;2024-01-27T08:20:18;103536.16;;;3.73;100.00
54172;BME280;40076;52.354;4.970;2024-01-27T08:22:43;103537.56;;;3.76;100.00
54172;BME280;40076;52.354;4.970;2024-01-27T08:25:09;103539.22;;;3.77;100.00
54172;BME280;40076;52.354;4.970;2024-01-27T08:27:34;103539.84;;;3.79;100.00
54172;BME280;40076;52.354;4.970;2024-01-27T08:29:59;103534.06;;;3.82;100.00
54172;BME280;40076;52.354;4.970;2024-01-27T08:32:26;103538.19;;;3.84;100.00
54172;BME280;40076;52.354;4.970;2024-01-27T08:34:51;103541.50;;;3.86;100.00
54172;BME280;40076;52.354;4.970;2024-01-27T08:37:20;103535.13;;;3.87;100.00
54172;BME280;40076;52.354;4.970;2024-01-27T08:39:46;103532.00;;;3.91;100.00
54172;BME280;40076;52.354;4.970;2024-01-27T08:42:11;103536.13;;;3.93;100.00
54172;BME280;40076;52.354;4.970;2024-01-27T08:44:38;103536.75;;;3.95;100.00
54172;BME280;40076;52.354;4.970;2024-01-27T08:47:04;103536.31;;;3.98;100.00
54172;BME280;40076;52.354;4.970;2024-01-27T08:49:29;103539.59;;;4.00;100.00
54172;BME280;40076;52.354;4.970;2024-01-27T08:51:55;103542.09;;;4.02;100.00
54172;BME280;40076;52.354;4.970;2024-01-27T08:54:21;103548.88;;;4.04;100.00
54172;BME280;40076;52.354;4.970;2024-01-27T08:56:46;103548.66;;;4.06;100.00
54172;BME280;40076;52.354;4.970;2024-01-27T08:59:11;103546.59;;;4.08;100.00
54172;BME280;40076;52.354;4.970;2024-01-27T09:01:37;103548.25;;;4.09;100.00
54172;BME280;40076;52.354;4.970;2024-01-27T09:04:02;103554.22;;;4.11;100.00
54172;BME280;40076;52.354;4.970;2024-01-27T09:06:27;103546.19;;;4.11;100.00
54172;BME280;40076;52.354;4.970;2024-01-27T09:08:53;103558.53;;;4.12;100.00
54172;BME280;40076;52.354;4.970;2024-01-27T09:11:18;103547.59;;;4.13;100.00
54172;BME280;40076;52.354;4.970;2024-01-27T09:13:43;103550.50;;;4.12;100.00
54172;BME280;40076;52.354;4.970;2024-01-27T09:16:10;103553.78;;;4.14;100.00
54172;BME280;40076;52.354;4.970;2024-01-27T09:18:38;103551.09;;;4.14;100.00
54172;BME280;40076;52.354;4.970;2024-01-27T09:21:07;103555.44;;;4.15;100.00
54172;BME280;40076;52.354;4.970;2024-01-27T09:23:35;103561.41;;;4.17;100.00
54172;BME280;40076;52.354;4.970;2024-01-27T09:26:04;103559.53;;;4.17;100.00
54172;BME280;40076;52.354;4.970;2024-01-27T09:28:37;103556.88;;;4.17;100.00
54172;BME280;40076;52.354;4.970;2024-01-27T09:31:02;103563.88;;;4.18;100.00
54172;BME280;40076;52.354;4.970;2024-01-27T09:33:28;103576.00;;;4.21;100.00
54172;BME280;40076;52.354;4.970;2024-01-27T09:35:54;103579.28;;;4.23;100.00
54172;BME280;40076;52.354;4.970;2024-01-27T09:38:20;103582.59;;;4.25;100.00
54172;BME280;40076;52.354;4.970;2024-01-27T09:40:46;103584.25;;;4.26;100.00
54172;BME280;40076;52.354;4.970;2024-01-27T09:43:13;103589.16;;;4.29;100.00
54172;BME280;40076;52.354;4.970;2024-01-27T09:45:39;103583.59;;;4.31;100.00
54172;BME280;40076;52.354;4.970;2024-01-27T09:48:05;103590.41;;;4.33;100.00
54172;BME280;40076;52.354;4.970;2024-01-27T09:50:33;103582.16;;;4.35;100.00
54172;BME280;40076;52.354;4.970;2024-01-27T09:52:59;103592.44;;;4.38;100.00
54172;BME280;40076;52.354;4.970;2024-01-27T09:55:25;103607.88;;;4.42;100.00
54172;BME280;40076;52.354;4.970;2024-01-27T09:57:51;103605.59;;;4.46;100.00
54172;BME280;40076;52.354;4.970;2024-01-27T10:00:18;103607.03;;;4.48;100.00
54172;BME280;40076;52.354;4.970;2024-01-27T10:02:46;103602.91;;;4.52;100.00
54172;BME280;40076;52.354;4.970;2024-01-27T10:05:13;103609.69;;;4.55;100.00
54172;BME280;40076;52.354;4.970;2024-01-27T10:07:39;103605.53;;;4.59;100.00
54172;BME280;40076;52.354;4.970;2024-01-27T10:10:05;103610.28;;;4.63;100.00
54172;BME280;40076;52.354;4.970;2024-01-27T10:12:31;103614.19;;;4.68;100.00
54172;BME280;40076;52.354;4.970;2024-01-27T10:14:57;103610.06;;;4.72;100.00
54172;BME280;40076;52.354;4.970;2024-01-27T10:17:24;103615.59;;;4.77;100.00
54172;BME280;40076;52.354;4.970;2024-01-27T10:20:00;103621.13;;;4.82;100.00
54172;BME280;40076;52.354;4.970;2024-01-27T10:22:27;103621.34;;;4.87;100.00
54172;BME280;40076;52.354;4.970;2024-01-27T10:24:52;103631.19;;;4.93;100.00
54172;BME280;40076;52.354;4.970;2024-01-27T10:27:17;103626.22;;;4.96;100.00
54172;BME280;40076;52.354;4.970;2024-01-27T10:29:56;103629.91;;;5.02;100.00
54172;BME280;40076;52.354;4.970;2024-01-27T10:32:21;103627.19;;;5.09;100.00
54172;BME280;40076;52.354;4.970;2024-01-27T10:35:09;103618.31;;;5.15;100.00
54172;BME280;40076;52.354;4.970;2024-01-27T10:37:35;103623.00;;;5.19;100.00
54172;BME280;40076;52.354;4.970;2024-01-27T10:42:28;103609.97;;;5.29;100.00
54172;BME280;40076;52.354;4.970;2024-01-27T10:44:57;103607.25;;;5.36;100.00
54172;BME280;40076;52.354;4.970;2024-01-27T10:47:27;103591.34;;;5.41;100.00
54172;BME280;40076;52.354;4.970;2024-01-27T10:49:55;103595.00;;;5.47;100.00
54172;BME280;40076;52.354;4.970;2024-01-27T10:52:25;103609.63;;;5.51;100.00
54172;BME280;40076;52.354;4.970;2024-01-27T10:55:01;103598.84;;;5.57;100.00
54172;BME280;40076;52.354;4.970;2024-01-27T10:57:29;103598.00;;;5.63;100.00
54172;BME280;40076;52.354;4.970;2024-01-27T10:59:56;103606.41;;;5.67;100.00
54172;BME280;40076;52.354;4.970;2024-01-27T11:02:22;103608.44;;;5.71;100.00
54172;BME280;40076;52.354;4.970;2024-01-27T11:04:48;103606.75;;;5.77;100.00
54172;BME280;40076;52.354;4.970;2024-01-27T11:07:15;103613.31;;;5.81;100.00
54172;BME280;40076;52.354;4.970;2024-01-27T11:09:42;103604.41;;;5.87;100.00
54172;BME280;40076;52.354;4.970;2024-01-27T11:12:07;103602.94;;;5.91;100.00
54172;BME280;40076;52.354;4.970;2024-01-27T11:14:34;103597.72;;;5.96;100.00
54172;BME280;40076;52.354;4.970;2024-01-27T11:16:59;103595.22;;;6.01;100.00
54172;BME280;40076;52.354;4.970;2024-01-27T11:19:25;103606.09;;;6.06;100.00
54172;BME280;40076;52.354;4.970;2024-01-27T11:22:02;103612.66;;;6.10;100.00
54172;BME280;40076;52.354;4.970;2024-01-27T11:24:28;103610.97;;;6.16;100.00
54172;BME280;40076;52.354;4.970;2024-01-27T11:27:01;103607.84;;;6.19;100.00
54172;BME280;40076;52.354;4.970;2024-01-27T11:29:26;103606.16;;;6.25;100.00
54172;BME280;40076;52.354;4.970;2024-01-27T11:31:54;103595.97;;;6.27;100.00
54172;BME280;40076;52.354;4.970;2024-01-27T11:34:19;103589.97;;;6.31;100.00
54172;BME280;40076;52.354;4.970;2024-01-27T11:36:45;103591.16;;;6.35;100.00
54172;BME280;40076;52.354;4.970;2024-01-27T11:39:31;103594.00;;;6.40;100.00
54172;BME280;40076;52.354;4.970;2024-01-27T11:42:11;103589.00;;;6.44;100.00
54172;BME280;40076;52.354;4.970;2024-01-27T11:44:39;103572.44;;;6.47;100.00
54172;BME280;40076;52.354;4.970;2024-01-27T11:47:08;103582.72;;;6.50;100.00
54172;BME280;40076;52.354;4.970;2024-01-27T11:49:38;103585.09;;;6.58;100.00
54172;BME280;40076;52.354;4.970;2024-01-27T11:52:06;103586.63;;;6.54;100.00
54172;BME280;40076;52.354;4.970;2024-01-27T11:54:31;103579.16;;;6.56;100.00
54172;BME280;40076;52.354;4.970;2024-01-27T11:56:57;103583.03;;;6.60;100.00
54172;BME280;40076;52.354;4.970;2024-01-27T11:59:22;103578.03;;;6.64;100.00
54172;BME280;40076;52.354;4.970;2024-01-27T12:01:50;103566.59;;;6.68;100.00
54172;BME280;40076;52.354;4.970;2024-01-27T12:04:16;103560.78;;;6.71;100.00
54172;BME280;40076;52.354;4.970;2024-01-27T12:06:43;103570.03;;;6.75;100.00
54172;BME280;40076;52.354;4.970;2024-01-27T12:09:09;103561.25;;;6.80;100.00
54172;BME280;40076;52.354;4.970;2024-01-27T12:11:38;103560.81;;;6.83;100.00
54172;BME280;40076;52.354;4.970;2024-01-27T12:14:05;103552.06;;;6.87;100.00
54172;BME280;40076;52.354;4.970;2024-01-27T12:16:31;103555.97;;;6.91;100.00
54172;BME280;40076;52.354;4.970;2024-01-27T12:18:56;103558.16;;;6.94;100.00
54172;BME280;40076;52.354;4.970;2024-01-27T12:21:22;103554.22;;;6.97;100.00
54172;BME280;40076;52.354;4.970;2024-01-27T12:23:56;103546.53;;;7.01;100.00
54172;BME280;40076;52.354;4.970;2024-01-27T12:26:23;103542.53;;;7.03;100.00
54172;BME280;40076;52.354;4.970;2024-01-27T12:28:49;103541.28;;;7.06;100.00
54172;BME280;40076;52.354;4.970;2024-01-27T12:31:16;103542.69;;;7.08;100.00
54172;BME280;40076;52.354;4.970;2024-01-27T12:33:49;103539.31;;;7.13;100.00
54172;BME280;40076;52.354;4.970;2024-01-27T12:36:14;103547.75;;;7.16;100.00
54172;BME280;40076;52.354;4.970;2024-01-27T12:38:40;103554.53;;;7.19;100.00
54172;BME280;40076;52.354;4.970;2024-01-27T12:41:05;103552.44;;;7.21;100.00
54172;BME280;40076;52.354;4.970;2024-01-27T12:43:30;103549.53;;;7.22;100.00
54172;BME280;40076;52.354;4.970;2024-01-27T12:45:56;103545.53;;;7.25;100.00
54172;BME280;40076;52.354;4.970;2024-01-27T12:48:21;103546.13;;;7.27;100.00